sensor_id;sensor_type;location;lat;lon;timestamp;P1;durP1;ratioP1;P2;durP2;ratioP2
71503;SDS011;59323;50.874;7.028;2023-04-24T00:00:53;1.37;;;0.50;;
71503;SDS011;59323;50.874;7.028;2023-04-24T00:03:21;2.95;;;0.80;;
71503;SDS011;59323;50.874;7.028;2023-04-24T00:05:47;2.50;;;0.75;;
71503;SDS011;59323;50.874;7.028;2023-04-24T00:08:12;1.73;;;0.80;;
71503;SDS011;59323;50.874;7.028;2023-04-24T00:10:38;2.27;;;0.80;;
71503;SDS011;59323;50.874;7.028;2023-04-24T00:13:03;1.13;;;0.50;;
71503;SDS011;59323;50.874;7.028;2023-04-24T00:15:29;1.77;;;0.70;;
71503;SDS011;59323;50.874;7.028;2023-04-24T00:17:54;1.67;;;0.77;;
71503;SDS011;59323;50.874;7.028;2023-04-24T00:20:20;1.70;;;0.80;;
71503;SDS011;59323;50.874;7.028;2023-04-24T00:22:46;3.40;;;0.70;;
71503;SDS011;59323;50.874;7.028;2023-04-24T00:25:11;1.40;;;0.80;;
71503;SDS011;59323;50.874;7.028;2023-04-24T00:27:36;1.40;;;0.60;;
71503;SDS011;59323;50.874;7.028;2023-04-24T00:30:03;2.30;;;0.60;;
71503;SDS011;59323;50.874;7.028;2023-04-24T00:32:29;2.40;;;0.57;;
71503;SDS011;59323;50.874;7.028;2023-04-24T00:34:55;3.27;;;0.80;;
71503;SDS011;59323;50.874;7.028;2023-04-24T00:37:20;0.90;;;0.53;;
71503;SDS011;59323;50.874;7.028;2023-04-24T00:39:45;2.37;;;0.60;;
71503;SDS011;59323;50.874;7.028;2023-04-24T00:42:11;1.90;;;0.63;;
71503;SDS011;59323;50.874;7.028;2023-04-24T00:44:36;2.55;;;0.70;;
71503;SDS011;59323;50.874;7.028;2023-04-24T00:47:02;2.77;;;0.90;;
71503;SDS011;59323;50.874;7.028;2023-04-24T00:49:28;1.23;;;0.40;;
71503;SDS011;59323;50.874;7.028;2023-04-24T00:51:53;3.47;;;0.60;;
71503;SDS011;59323;50.874;7.028;2023-04-24T00:54:19;1.37;;;0.70;;
71503;SDS011;59323;50.874;7.028;2023-04-24T00:56:44;1.67;;;0.70;;
71503;SDS011;59323;50.874;7.028;2023-04-24T00:59:11;1.23;;;0.47;;
71503;SDS011;59323;50.874;7.028;2023-04-24T01:01:37;1.75;;;0.60;;
71503;SDS011;59323;50.874;7.028;2023-04-24T01:04:07;2.13;;;0.70;;
71503;SDS011;59323;50.874;7.028;2023-04-24T01:06:34;1.90;;;0.82;;
71503;SDS011;59323;50.874;7.028;2023-04-24T01:09:03;1.90;;;0.70;;
71503;SDS011;59323;50.874;7.028;2023-04-24T01:11:29;2.72;;;0.90;;
71503;SDS011;59323;50.874;7.028;2023-04-24T01:13:55;1.77;;;0.63;;
71503;SDS011;59323;50.874;7.028;2023-04-24T01:16:21;3.80;;;0.65;;
71503;SDS011;59323;50.874;7.028;2023-04-24T01:18:46;3.63;;;0.60;;
71503;SDS011;59323;50.874;7.028;2023-04-24T01:21:17;2.13;;;0.90;;
71503;SDS011;59323;50.874;7.028;2023-04-24T01:23:46;3.53;;;0.90;;
71503;SDS011;59323;50.874;7.028;2023-04-24T01:26:12;3.20;;;1.00;;
71503;SDS011;59323;50.874;7.028;2023-04-24T01:28:38;5.40;;;0.97;;
71503;SDS011;59323;50.874;7.028;2023-04-24T01:31:04;4.82;;;1.00;;
71503;SDS011;59323;50.874;7.028;2023-04-24T01:33:29;2.77;;;1.00;;
71503;SDS011;59323;50.874;7.028;2023-04-24T01:35:54;3.30;;;1.07;;
71503;SDS011;59323;50.874;7.028;2023-04-24T01:38:20;3.03;;;1.02;;
71503;SDS011;59323;50.874;7.028;2023-04-24T01:40:46;2.60;;;1.10;;
71503;SDS011;59323;50.874;7.028;2023-04-24T01:43:12;4.40;;;1.40;;
71503;SDS011;59323;50.874;7.028;2023-04-24T01:45:37;4.25;;;1.30;;
71503;SDS011;59323;50.874;7.028;2023-04-24T01:48:03;3.20;;;1.37;;
71503;SDS011;59323;50.874;7.028;2023-04-24T01:50:28;4.97;;;1.77;;
71503;SDS011;59323;50.874;7.028;2023-04-24T01:52:54;4.87;;;1.57;;
71503;SDS011;59323;50.874;7.028;2023-04-24T01:55:20;3.95;;;1.63;;
71503;SDS011;59323;50.874;7.028;2023-04-24T01:57:45;4.00;;;1.60;;
71503;SDS011;59323;50.874;7.028;2023-04-24T02:00:11;5.63;;;1.40;;
71503;SDS011;59323;50.874;7.028;2023-04-24T02:02:37;4.85;;;1.40;;
71503;SDS011;59323;50.874;7.028;2023-04-24T02:05:05;3.92;;;1.20;;
71503;SDS011;59323;50.874;7.028;2023-04-24T02:07:31;4.55;;;1.75;;
71503;SDS011;59323;50.874;7.028;2023-04-24T02:09:57;4.30;;;1.70;;
71503;SDS011;59323;50.874;7.028;2023-04-24T02:12:23;5.20;;;2.10;;
71503;SDS011;59323;50.874;7.028;2023-04-24T02:14:48;4.93;;;1.70;;
71503;SDS011;59323;50.874;7.028;2023-04-24T02:17:13;6.10;;;1.80;;
71503;SDS011;59323;50.874;7.028;2023-04-24T02:19:40;6.28;;;1.95;;
71503;SDS011;59323;50.874;7.028;2023-04-24T02:22:06;6.17;;;2.03;;
71503;SDS011;59323;50.874;7.028;2023-04-24T02:24:31;5.57;;;1.97;;
71503;SDS011;59323;50.874;7.028;2023-04-24T02:26:56;4.63;;;1.70;;
71503;SDS011;59323;50.874;7.028;2023-04-24T02:29:23;6.65;;;1.63;;
71503;SDS011;59323;50.874;7.028;2023-04-24T02:31:48;5.67;;;1.93;;
71503;SDS011;59323;50.874;7.028;2023-04-24T02:34:13;4.45;;;1.90;;
71503;SDS011;59323;50.874;7.028;2023-04-24T02:36:39;9.73;;;2.60;;
71503;SDS011;59323;50.874;7.028;2023-04-24T02:39:04;6.97;;;2.47;;
71503;SDS011;59323;50.874;7.028;2023-04-24T02:41:30;6.23;;;2.47;;
71503;SDS011;59323;50.874;7.028;2023-04-24T02:43:57;5.93;;;2.23;;
71503;SDS011;59323;50.874;7.028;2023-04-24T02:46:23;8.23;;;3.17;;
71503;SDS011;59323;50.874;7.028;2023-04-24T02:48:48;8.47;;;3.10;;
71503;SDS011;59323;50.874;7.028;2023-04-24T02:51:14;8.30;;;2.63;;
71503;SDS011;59323;50.874;7.028;2023-04-24T02:53:39;6.90;;;3.10;;
71503;SDS011;59323;50.874;7.028;2023-04-24T02:56:05;7.77;;;3.00;;
71503;SDS011;59323;50.874;7.028;2023-04-24T02:58:30;7.17;;;2.80;;
71503;SDS011;59323;50.874;7.028;2023-04-24T03:00:55;9.27;;;3.00;;
71503;SDS011;59323;50.874;7.028;2023-04-24T03:03:21;7.47;;;3.38;;
71503;SDS011;59323;50.874;7.028;2023-04-24T03:05:47;8.77;;;3.10;;
71503;SDS011;59323;50.874;7.028;2023-04-24T03:08:12;8.03;;;3.30;;
71503;SDS011;59323;50.874;7.028;2023-04-24T03:10:39;7.80;;;3.30;;
71503;SDS011;59323;50.874;7.028;2023-04-24T03:13:12;8.57;;;3.10;;
71503;SDS011;59323;50.874;7.028;2023-04-24T03:15:37;8.77;;;3.80;;
71503;SDS011;59323;50.874;7.028;2023-04-24T03:18:03;7.17;;;3.20;;
71503;SDS011;59323;50.874;7.028;2023-04-24T03:20:28;9.75;;;3.67;;
71503;SDS011;59323;50.874;7.028;2023-04-24T03:22:53;7.93;;;3.40;;
71503;SDS011;59323;50.874;7.028;2023-04-24T03:25:19;7.43;;;3.27;;
71503;SDS011;59323;50.874;7.028;2023-04-24T03:27:44;8.63;;;3.23;;
71503;SDS011;59323;50.874;7.028;2023-04-24T03:30:10;7.53;;;3.30;;
71503;SDS011;59323;50.874;7.028;2023-04-24T03:32:35;8.20;;;3.60;;
71503;SDS011;59323;50.874;7.028;2023-04-24T03:35:01;7.93;;;2.90;;
71503;SDS011;59323;50.874;7.028;2023-04-24T03:37:26;8.33;;;3.20;;
71503;SDS011;59323;50.874;7.028;2023-04-24T03:39:52;7.10;;;2.83;;
71503;SDS011;59323;50.874;7.028;2023-04-24T03:42:25;8.30;;;3.07;;
71503;SDS011;59323;50.874;7.028;2023-04-24T03:44:50;8.30;;;3.45;;
71503;SDS011;59323;50.874;7.028;2023-04-24T03:47:16;7.03;;;3.37;;
71503;SDS011;59323;50.874;7.028;2023-04-24T03:49:41;8.33;;;3.33;;
71503;SDS011;59323;50.874;7.028;2023-04-24T03:52:06;8.73;;;3.25;;
71503;SDS011;59323;50.874;7.028;2023-04-24T03:54:31;7.33;;;3.40;;
71503;SDS011;59323;50.874;7.028;2023-04-24T03:56:57;8.20;;;3.10;;
71503;SDS011;59323;50.874;7.028;2023-04-24T03:59:22;6.27;;;2.83;;
71503;SDS011;59323;50.874;7.028;2023-04-24T04:01:47;7.90;;;3.00;;
71503;SDS011;59323;50.874;7.028;2023-04-24T04:04:13;6.90;;;3.13;;
71503;SDS011;59323;50.874;7.028;2023-04-24T04:06:38;8.07;;;3.20;;
71503;SDS011;59323;50.874;7.028;2023-04-24T04:09:04;6.63;;;2.70;;
71503;SDS011;59323;50.874;7.028;2023-04-24T04:11:29;8.00;;;3.20;;
71503;SDS011;59323;50.874;7.028;2023-04-24T04:13:56;8.90;;;3.35;;
71503;SDS011;59323;50.874;7.028;2023-04-24T04:16:22;8.67;;;3.10;;
71503;SDS011;59323;50.874;7.028;2023-04-24T04:18:47;8.38;;;3.60;;
71503;SDS011;59323;50.874;7.028;2023-04-24T04:21:13;6.50;;;3.03;;
71503;SDS011;59323;50.874;7.028;2023-04-24T04:23:38;6.33;;;2.87;;
71503;SDS011;59323;50.874;7.028;2023-04-24T04:26:05;8.35;;;3.50;;
71503;SDS011;59323;50.874;7.028;2023-04-24T04:28:31;7.30;;;2.83;;
71503;SDS011;59323;50.874;7.028;2023-04-24T04:30:57;6.72;;;3.20;;
71503;SDS011;59323;50.874;7.028;2023-04-24T04:33:23;8.53;;;3.40;;
71503;SDS011;59323;50.874;7.028;2023-04-24T04:35:51;9.77;;;3.92;;
71503;SDS011;59323;50.874;7.028;2023-04-24T04:38:18;7.07;;;3.25;;
71503;SDS011;59323;50.874;7.028;2023-04-24T04:40:44;8.70;;;3.78;;
71503;SDS011;59323;50.874;7.028;2023-04-24T04:43:10;8.03;;;3.37;;
71503;SDS011;59323;50.874;7.028;2023-04-24T04:45:36;8.55;;;3.33;;
71503;SDS011;59323;50.874;7.028;2023-04-24T04:48:03;8.43;;;3.58;;
71503;SDS011;59323;50.874;7.028;2023-04-24T04:50:29;7.70;;;3.60;;
71503;SDS011;59323;50.874;7.028;2023-04-24T04:52:55;8.00;;;3.20;;
71503;SDS011;59323;50.874;7.028;2023-04-24T04:55:20;7.80;;;3.40;;
71503;SDS011;59323;50.874;7.028;2023-04-24T04:57:46;10.63;;;3.53;;
71503;SDS011;59323;50.874;7.028;2023-04-24T05:00:11;8.20;;;3.50;;
71503;SDS011;59323;50.874;7.028;2023-04-24T05:02:40;11.77;;;3.70;;
71503;SDS011;59323;50.874;7.028;2023-04-24T05:05:06;9.27;;;3.45;;
71503;SDS011;59323;50.874;7.028;2023-04-24T05:07:32;7.80;;;3.55;;
71503;SDS011;59323;50.874;7.028;2023-04-24T05:09:57;9.00;;;3.90;;
71503;SDS011;59323;50.874;7.028;2023-04-24T05:12:23;10.10;;;3.92;;
71503;SDS011;59323;50.874;7.028;2023-04-24T05:14:48;8.37;;;3.20;;
71503;SDS011;59323;50.874;7.028;2023-04-24T05:17:14;8.93;;;4.30;;
71503;SDS011;59323;50.874;7.028;2023-04-24T05:19:40;11.10;;;4.13;;
71503;SDS011;59323;50.874;7.028;2023-04-24T05:22:05;8.47;;;3.83;;
71503;SDS011;59323;50.874;7.028;2023-04-24T05:24:32;10.25;;;3.65;;
71503;SDS011;59323;50.874;7.028;2023-04-24T05:26:58;8.23;;;3.92;;
71503;SDS011;59323;50.874;7.028;2023-04-24T05:29:24;10.70;;;4.17;;
71503;SDS011;59323;50.874;7.028;2023-04-24T05:31:51;10.65;;;3.88;;
71503;SDS011;59323;50.874;7.028;2023-04-24T05:34:16;7.87;;;3.50;;
71503;SDS011;59323;50.874;7.028;2023-04-24T05:36:41;9.27;;;3.90;;
71503;SDS011;59323;50.874;7.028;2023-04-24T05:39:07;7.97;;;3.47;;
71503;SDS011;59323;50.874;7.028;2023-04-24T05:41:35;9.93;;;3.60;;
71503;SDS011;59323;50.874;7.028;2023-04-24T05:44:00;10.32;;;4.13;;
71503;SDS011;59323;50.874;7.028;2023-04-24T05:46:25;8.73;;;3.87;;
71503;SDS011;59323;50.874;7.028;2023-04-24T05:48:51;8.88;;;3.92;;
71503;SDS011;59323;50.874;7.028;2023-04-24T05:51:16;7.53;;;3.43;;
71503;SDS011;59323;50.874;7.028;2023-04-24T05:53:42;8.80;;;3.73;;
71503;SDS011;59323;50.874;7.028;2023-04-24T05:56:07;8.00;;;3.65;;
71503;SDS011;59323;50.874;7.028;2023-04-24T05:58:33;9.57;;;3.70;;
71503;SDS011;59323;50.874;7.028;2023-04-24T06:00:58;10.10;;;3.73;;
71503;SDS011;59323;50.874;7.028;2023-04-24T06:03:25;8.98;;;3.80;;
71503;SDS011;59323;50.874;7.028;2023-04-24T06:05:52;8.60;;;3.20;;
71503;SDS011;59323;50.874;7.028;2023-04-24T06:08:17;10.88;;;3.53;;
71503;SDS011;59323;50.874;7.028;2023-04-24T06:10:42;9.20;;;3.40;;
71503;SDS011;59323;50.874;7.028;2023-04-24T06:13:08;9.97;;;3.40;;
71503;SDS011;59323;50.874;7.028;2023-04-24T06:15:33;8.67;;;3.60;;
71503;SDS011;59323;50.874;7.028;2023-04-24T06:17:59;9.95;;;3.58;;
71503;SDS011;59323;50.874;7.028;2023-04-24T06:20:24;8.73;;;3.37;;
71503;SDS011;59323;50.874;7.028;2023-04-24T06:22:50;9.17;;;3.67;;
71503;SDS011;59323;50.874;7.028;2023-04-24T06:25:15;9.48;;;3.63;;
71503;SDS011;59323;50.874;7.028;2023-04-24T06:27:41;8.13;;;3.77;;
71503;SDS011;59323;50.874;7.028;2023-04-24T06:30:06;9.10;;;3.70;;
71503;SDS011;59323;50.874;7.028;2023-04-24T06:32:32;9.27;;;3.20;;
71503;SDS011;59323;50.874;7.028;2023-04-24T06:34:57;5.40;;;2.17;;
71503;SDS011;59323;50.874;7.028;2023-04-24T06:37:23;6.70;;;2.40;;
71503;SDS011;59323;50.874;7.028;2023-04-24T06:39:48;5.82;;;2.28;;
71503;SDS011;59323;50.874;7.028;2023-04-24T06:42:14;5.83;;;2.37;;
71503;SDS011;59323;50.874;7.028;2023-04-24T06:44:40;6.53;;;2.40;;
71503;SDS011;59323;50.874;7.028;2023-04-24T06:47:09;4.90;;;1.90;;
71503;SDS011;59323;50.874;7.028;2023-04-24T06:49:38;5.97;;;2.33;;
71503;SDS011;59323;50.874;7.028;2023-04-24T06:52:04;7.40;;;2.65;;
71503;SDS011;59323;50.874;7.028;2023-04-24T06:54:29;4.83;;;2.00;;
71503;SDS011;59323;50.874;7.028;2023-04-24T06:56:56;4.43;;;1.50;;
71503;SDS011;59323;50.874;7.028;2023-04-24T06:59:22;4.43;;;1.88;;
71503;SDS011;59323;50.874;7.028;2023-04-24T07:01:48;4.38;;;1.70;;
71503;SDS011;59323;50.874;7.028;2023-04-24T07:04:14;3.67;;;1.50;;
71503;SDS011;59323;50.874;7.028;2023-04-24T07:06:39;3.47;;;1.73;;
71503;SDS011;59323;50.874;7.028;2023-04-24T07:09:05;4.40;;;1.50;;
71503;SDS011;59323;50.874;7.028;2023-04-24T07:11:30;3.30;;;1.13;;
71503;SDS011;59323;50.874;7.028;2023-04-24T07:13:56;5.87;;;1.70;;
71503;SDS011;59323;50.874;7.028;2023-04-24T07:16:21;5.57;;;1.50;;
71503;SDS011;59323;50.874;7.028;2023-04-24T07:18:47;3.93;;;1.60;;
71503;SDS011;59323;50.874;7.028;2023-04-24T07:21:12;3.87;;;1.43;;
71503;SDS011;59323;50.874;7.028;2023-04-24T07:23:38;4.40;;;1.57;;
71503;SDS011;59323;50.874;7.028;2023-04-24T07:26:03;4.13;;;1.40;;
71503;SDS011;59323;50.874;7.028;2023-04-24T07:28:29;3.37;;;1.50;;
71503;SDS011;59323;50.874;7.028;2023-04-24T07:30:57;6.50;;;1.90;;
71503;SDS011;59323;50.874;7.028;2023-04-24T07:33:23;3.30;;;1.38;;
71503;SDS011;59323;50.874;7.028;2023-04-24T07:35:49;3.00;;;1.13;;
71503;SDS011;59323;50.874;7.028;2023-04-24T07:38:14;4.28;;;1.40;;
71503;SDS011;59323;50.874;7.028;2023-04-24T07:40:40;4.03;;;1.10;;
71503;SDS011;59323;50.874;7.028;2023-04-24T07:43:05;3.43;;;1.33;;
71503;SDS011;59323;50.874;7.028;2023-04-24T07:45:30;3.40;;;1.40;;
71503;SDS011;59323;50.874;7.028;2023-04-24T07:47:57;3.25;;;1.50;;
71503;SDS011;59323;50.874;7.028;2023-04-24T07:50:22;3.03;;;1.20;;
71503;SDS011;59323;50.874;7.028;2023-04-24T07:52:47;4.80;;;1.30;;
71503;SDS011;59323;50.874;7.028;2023-04-24T07:55:13;3.90;;;1.30;;
71503;SDS011;59323;50.874;7.028;2023-04-24T07:57:39;3.10;;;1.13;;
71503;SDS011;59323;50.874;7.028;2023-04-24T08:00:04;3.23;;;1.27;;
71503;SDS011;59323;50.874;7.028;2023-04-24T08:02:30;3.72;;;1.13;;
71503;SDS011;59323;50.874;7.028;2023-04-24T08:04:56;3.50;;;1.15;;
71503;SDS011;59323;50.874;7.028;2023-04-24T08:07:23;2.80;;;1.10;;
71503;SDS011;59323;50.874;7.028;2023-04-24T08:09:49;3.35;;;0.90;;
71503;SDS011;59323;50.874;7.028;2023-04-24T08:12:14;3.97;;;1.37;;
71503;SDS011;59323;50.874;7.028;2023-04-24T08:14:40;3.83;;;1.20;;
71503;SDS011;59323;50.874;7.028;2023-04-24T08:17:05;5.47;;;1.53;;
71503;SDS011;59323;50.874;7.028;2023-04-24T08:19:30;7.80;;;1.88;;
71503;SDS011;59323;50.874;7.028;2023-04-24T08:21:56;7.20;;;2.07;;
71503;SDS011;59323;50.874;7.028;2023-04-24T08:24:22;6.60;;;2.00;;
71503;SDS011;59323;50.874;7.028;2023-04-24T08:26:47;4.65;;;1.75;;
71503;SDS011;59323;50.874;7.028;2023-04-24T08:29:15;5.32;;;1.80;;
71503;SDS011;59323;50.874;7.028;2023-04-24T08:31:41;5.73;;;1.73;;
71503;SDS011;59323;50.874;7.028;2023-04-24T08:34:06;6.00;;;1.67;;
71503;SDS011;59323;50.874;7.028;2023-04-24T08:36:31;4.15;;;1.10;;
71503;SDS011;59323;50.874;7.028;2023-04-24T08:38:57;2.67;;;1.03;;
71503;SDS011;59323;50.874;7.028;2023-04-24T08:41:23;2.15;;;0.68;;
71503;SDS011;59323;50.874;7.028;2023-04-24T08:43:51;5.03;;;0.80;;
71503;SDS011;59323;50.874;7.028;2023-04-24T08:46:16;2.30;;;0.73;;
71503;SDS011;59323;50.874;7.028;2023-04-24T08:48:44;2.83;;;0.80;;
71503;SDS011;59323;50.874;7.028;2023-04-24T08:51:10;2.72;;;0.80;;
71503;SDS011;59323;50.874;7.028;2023-04-24T08:53:36;3.07;;;1.00;;
71503;SDS011;59323;50.874;7.028;2023-04-24T08:56:02;2.95;;;1.05;;
71503;SDS011;59323;50.874;7.028;2023-04-24T08:58:28;3.15;;;1.13;;
71503;SDS011;59323;50.874;7.028;2023-04-24T09:00:54;4.87;;;1.03;;
71503;SDS011;59323;50.874;7.028;2023-04-24T09:03:20;3.45;;;1.30;;
71503;SDS011;59323;50.874;7.028;2023-04-24T09:05:47;5.75;;;1.80;;
71503;SDS011;59323;50.874;7.028;2023-04-24T09:08:14;3.60;;;1.40;;
71503;SDS011;59323;50.874;7.028;2023-04-24T09:10:42;6.07;;;1.67;;
71503;SDS011;59323;50.874;7.028;2023-04-24T09:13:08;5.77;;;1.40;;
71503;SDS011;59323;50.874;7.028;2023-04-24T09:15:35;4.28;;;1.52;;
71503;SDS011;59323;50.874;7.028;2023-04-24T09:18:04;4.97;;;1.70;;
71503;SDS011;59323;50.874;7.028;2023-04-24T09:20:31;4.72;;;1.65;;
71503;SDS011;59323;50.874;7.028;2023-04-24T09:22:57;5.53;;;1.80;;
71503;SDS011;59323;50.874;7.028;2023-04-24T09:25:23;5.20;;;1.63;;
71503;SDS011;59323;50.874;7.028;2023-04-24T09:27:59;5.65;;;1.80;;
71503;SDS011;59323;50.874;7.028;2023-04-24T09:30:27;4.97;;;1.70;;
71503;SDS011;59323;50.874;7.028;2023-04-24T09:33:12;4.77;;;1.80;;
71503;SDS011;59323;50.874;7.028;2023-04-24T09:35:50;6.70;;;2.05;;
71503;SDS011;59323;50.874;7.028;2023-04-24T09:38:16;8.13;;;2.83;;
71503;SDS011;59323;50.874;7.028;2023-04-24T09:40:42;7.13;;;2.50;;
71503;SDS011;59323;50.874;7.028;2023-04-24T09:43:10;8.32;;;2.47;;
71503;SDS011;59323;50.874;7.028;2023-04-24T09:45:45;6.47;;;2.50;;
71503;SDS011;59323;50.874;7.028;2023-04-24T09:48:10;7.80;;;2.50;;
71503;SDS011;59323;50.874;7.028;2023-04-24T09:50:36;8.30;;;2.47;;
71503;SDS011;59323;50.874;7.028;2023-04-24T09:53:02;8.67;;;3.20;;
71503;SDS011;59323;50.874;7.028;2023-04-24T09:55:28;8.15;;;3.17;;
71503;SDS011;59323;50.874;7.028;2023-04-24T09:57:55;9.17;;;3.17;;
71503;SDS011;59323;50.874;7.028;2023-04-24T10:00:22;7.57;;;2.90;;
71503;SDS011;59323;50.874;7.028;2023-04-24T10:02:58;11.00;;;3.47;;
71503;SDS011;59323;50.874;7.028;2023-04-24T10:05:29;8.75;;;3.40;;
71503;SDS011;59323;50.874;7.028;2023-04-24T10:08:12;12.07;;;3.87;;
71503;SDS011;59323;50.874;7.028;2023-04-24T10:10:39;9.60;;;3.53;;
71503;SDS011;59323;50.874;7.028;2023-04-24T10:13:11;10.32;;;3.60;;
71503;SDS011;59323;50.874;7.028;2023-04-24T10:15:38;9.85;;;3.50;;
71503;SDS011;59323;50.874;7.028;2023-04-24T10:18:05;11.65;;;3.13;;
71503;SDS011;59323;50.874;7.028;2023-04-24T10:20:32;7.37;;;3.23;;
71503;SDS011;59323;50.874;7.028;2023-04-24T10:22:59;10.55;;;3.30;;
71503;SDS011;59323;50.874;7.028;2023-04-24T10:25:29;12.50;;;3.03;;
71503;SDS011;59323;50.874;7.028;2023-04-24T10:27:58;9.23;;;3.05;;
71503;SDS011;59323;50.874;7.028;2023-04-24T10:30:28;10.25;;;3.28;;
71503;SDS011;59323;50.874;7.028;2023-04-24T10:32:55;8.13;;;2.97;;
71503;SDS011;59323;50.874;7.028;2023-04-24T10:35:21;5.60;;;2.30;;
71503;SDS011;59323;50.874;7.028;2023-04-24T10:37:50;8.48;;;2.65;;
71503;SDS011;59323;50.874;7.028;2023-04-24T10:40:31;6.25;;;2.53;;
71503;SDS011;59323;50.874;7.028;2023-04-24T10:43:03;6.07;;;2.30;;
71503;SDS011;59323;50.874;7.028;2023-04-24T10:45:36;7.72;;;2.45;;
71503;SDS011;59323;50.874;7.028;2023-04-24T10:50:51;8.93;;;2.30;;
71503;SDS011;59323;50.874;7.028;2023-04-24T10:53:18;7.45;;;2.50;;
71503;SDS011;59323;50.874;7.028;2023-04-24T10:58:15;9.70;;;3.15;;
71503;SDS011;59323;50.874;7.028;2023-04-24T11:00:42;9.82;;;2.78;;
71503;SDS011;59323;50.874;7.028;2023-04-24T11:03:25;9.35;;;2.60;;
71503;SDS011;59323;50.874;7.028;2023-04-24T11:08:22;10.50;;;2.80;;
71503;SDS011;59323;50.874;7.028;2023-04-24T11:10:58;8.70;;;3.13;;
71503;SDS011;59323;50.874;7.028;2023-04-24T11:16:25;13.07;;;2.80;;
71503;SDS011;59323;50.874;7.028;2023-04-24T11:19:08;8.57;;;3.10;;
71503;SDS011;59323;50.874;7.028;2023-04-24T11:29:47;9.47;;;3.20;;
71503;SDS011;59323;50.874;7.028;2023-04-24T11:32:26;7.70;;;2.85;;
71503;SDS011;59323;50.874;7.028;2023-04-24T11:34:53;11.40;;;3.63;;
71503;SDS011;59323;50.874;7.028;2023-04-24T11:37:39;10.25;;;3.53;;
71503;SDS011;59323;50.874;7.028;2023-04-24T11:40:06;13.33;;;4.10;;
71503;SDS011;59323;50.874;7.028;2023-04-24T11:45:14;18.48;;;5.07;;
71503;SDS011;59323;50.874;7.028;2023-04-24T11:47:42;14.82;;;4.93;;
71503;SDS011;59323;50.874;7.028;2023-04-24T11:50:09;11.55;;;4.38;;
71503;SDS011;59323;50.874;7.028;2023-04-24T11:52:37;9.43;;;3.40;;
71503;SDS011;59323;50.874;7.028;2023-04-24T11:55:06;12.60;;;3.55;;
71503;SDS011;59323;50.874;7.028;2023-04-24T11:57:32;12.20;;;3.08;;
71503;SDS011;59323;50.874;7.028;2023-04-24T12:00:02;8.25;;;3.15;;
71503;SDS011;59323;50.874;7.028;2023-04-24T12:02:33;8.02;;;3.35;;
71503;SDS011;59323;50.874;7.028;2023-04-24T12:04:58;8.13;;;2.83;;
71503;SDS011;59323;50.874;7.028;2023-04-24T12:07:23;7.53;;;2.87;;
71503;SDS011;59323;50.874;7.028;2023-04-24T12:09:57;11.38;;;3.17;;
71503;SDS011;59323;50.874;7.028;2023-04-24T12:12:25;12.23;;;3.42;;
71503;SDS011;59323;50.874;7.028;2023-04-24T12:14:57;8.23;;;3.20;;
71503;SDS011;59323;50.874;7.028;2023-04-24T12:17:33;12.05;;;4.03;;
71503;SDS011;59323;50.874;7.028;2023-04-24T12:20:00;8.55;;;3.58;;
71503;SDS011;59323;50.874;7.028;2023-04-24T12:22:27;14.85;;;4.43;;
71503;SDS011;59323;50.874;7.028;2023-04-24T12:25:02;18.50;;;4.10;;
71503;SDS011;59323;50.874;7.028;2023-04-24T12:27:33;10.50;;;2.80;;
71503;SDS011;59323;50.874;7.028;2023-04-24T12:29:59;12.02;;;3.80;;
71503;SDS011;59323;50.874;7.028;2023-04-24T12:32:25;10.80;;;3.37;;
71503;SDS011;59323;50.874;7.028;2023-04-24T12:34:51;11.18;;;4.15;;
71503;SDS011;59323;50.874;7.028;2023-04-24T12:37:17;11.35;;;4.13;;
71503;SDS011;59323;50.874;7.028;2023-04-24T12:39:59;12.03;;;4.27;;
71503;SDS011;59323;50.874;7.028;2023-04-24T12:42:32;10.90;;;3.57;;
71503;SDS011;59323;50.874;7.028;2023-04-24T12:44:59;13.25;;;3.72;;
71503;SDS011;59323;50.874;7.028;2023-04-24T12:47:27;9.95;;;3.53;;
71503;SDS011;59323;50.874;7.028;2023-04-24T12:49:53;10.65;;;4.25;;
71503;SDS011;59323;50.874;7.028;2023-04-24T12:52:20;9.63;;;3.80;;
71503;SDS011;59323;50.874;7.028;2023-04-24T12:54:45;11.83;;;4.20;;
71503;SDS011;59323;50.874;7.028;2023-04-24T12:57:11;9.40;;;3.58;;
71503;SDS011;59323;50.874;7.028;2023-04-24T12:59:36;11.57;;;4.23;;
71503;SDS011;59323;50.874;7.028;2023-04-24T13:02:02;11.83;;;3.47;;
71503;SDS011;59323;50.874;7.028;2023-04-24T13:04:27;15.50;;;4.40;;
71503;SDS011;59323;50.874;7.028;2023-04-24T13:06:53;15.77;;;3.70;;
71503;SDS011;59323;50.874;7.028;2023-04-24T13:09:18;12.00;;;4.33;;
71503;SDS011;59323;50.874;7.028;2023-04-24T13:11:43;15.57;;;4.30;;
71503;SDS011;59323;50.874;7.028;2023-04-24T13:14:09;11.17;;;3.67;;
71503;SDS011;59323;50.874;7.028;2023-04-24T13:16:34;10.00;;;3.93;;
71503;SDS011;59323;50.874;7.028;2023-04-24T13:18:59;12.63;;;3.73;;
71503;SDS011;59323;50.874;7.028;2023-04-24T13:21:25;15.43;;;4.67;;
71503;SDS011;59323;50.874;7.028;2023-04-24T13:23:51;9.85;;;3.92;;
71503;SDS011;59323;50.874;7.028;2023-04-24T13:26:16;13.38;;;4.18;;
71503;SDS011;59323;50.874;7.028;2023-04-24T13:28:42;11.63;;;3.93;;
71503;SDS011;59323;50.874;7.028;2023-04-24T13:31:07;11.70;;;3.60;;
71503;SDS011;59323;50.874;7.028;2023-04-24T13:33:33;9.27;;;3.50;;
71503;SDS011;59323;50.874;7.028;2023-04-24T13:35:58;10.13;;;3.70;;
71503;SDS011;59323;50.874;7.028;2023-04-24T13:38:23;10.03;;;3.50;;
71503;SDS011;59323;50.874;7.028;2023-04-24T13:40:49;12.37;;;4.10;;
71503;SDS011;59323;50.874;7.028;2023-04-24T13:43:14;10.93;;;3.60;;
71503;SDS011;59323;50.874;7.028;2023-04-24T13:45:40;16.95;;;4.13;;
71503;SDS011;59323;50.874;7.028;2023-04-24T13:48:06;12.63;;;3.80;;
71503;SDS011;59323;50.874;7.028;2023-04-24T13:50:31;9.23;;;3.88;;
71503;SDS011;59323;50.874;7.028;2023-04-24T13:52:56;10.63;;;3.60;;
71503;SDS011;59323;50.874;7.028;2023-04-24T13:55:22;11.40;;;3.83;;
71503;SDS011;59323;50.874;7.028;2023-04-24T13:57:47;11.37;;;3.60;;
71503;SDS011;59323;50.874;7.028;2023-04-24T14:00:13;11.93;;;4.13;;
71503;SDS011;59323;50.874;7.028;2023-04-24T14:02:40;12.10;;;3.75;;
71503;SDS011;59323;50.874;7.028;2023-04-24T14:05:05;13.13;;;3.57;;
71503;SDS011;59323;50.874;7.028;2023-04-24T14:07:31;11.32;;;4.18;;
71503;SDS011;59323;50.874;7.028;2023-04-24T14:09:56;10.67;;;4.30;;
71503;SDS011;59323;50.874;7.028;2023-04-24T14:12:22;12.80;;;3.77;;
71503;SDS011;59323;50.874;7.028;2023-04-24T14:14:47;9.75;;;3.97;;
71503;SDS011;59323;50.874;7.028;2023-04-24T14:17:13;11.40;;;3.90;;
71503;SDS011;59323;50.874;7.028;2023-04-24T14:19:39;7.65;;;3.42;;
71503;SDS011;59323;50.874;7.028;2023-04-24T14:22:05;9.50;;;3.20;;
71503;SDS011;59323;50.874;7.028;2023-04-24T14:24:30;7.18;;;3.25;;
71503;SDS011;59323;50.874;7.028;2023-04-24T14:26:55;10.13;;;3.70;;
71503;SDS011;59323;50.874;7.028;2023-04-24T14:29:21;8.77;;;3.70;;
71503;SDS011;59323;50.874;7.028;2023-04-24T14:31:46;9.60;;;3.35;;
71503;SDS011;59323;50.874;7.028;2023-04-24T14:34:13;9.87;;;3.57;;
71503;SDS011;59323;50.874;7.028;2023-04-24T14:36:39;13.07;;;4.22;;
71503;SDS011;59323;50.874;7.028;2023-04-24T14:39:04;11.17;;;3.97;;
71503;SDS011;59323;50.874;7.028;2023-04-24T14:41:33;10.77;;;2.97;;
71503;SDS011;59323;50.874;7.028;2023-04-24T14:44:01;7.20;;;2.97;;
71503;SDS011;59323;50.874;7.028;2023-04-24T14:46:29;14.55;;;3.25;;
71503;SDS011;59323;50.874;7.028;2023-04-24T14:48:56;11.20;;;3.60;;
71503;SDS011;59323;50.874;7.028;2023-04-24T14:51:21;8.82;;;3.35;;
71503;SDS011;59323;50.874;7.028;2023-04-24T14:53:47;11.37;;;3.83;;
71503;SDS011;59323;50.874;7.028;2023-04-24T14:56:12;10.37;;;3.80;;
71503;SDS011;59323;50.874;7.028;2023-04-24T14:58:38;8.32;;;2.92;;
71503;SDS011;59323;50.874;7.028;2023-04-24T15:01:03;8.23;;;3.07;;
71503;SDS011;59323;50.874;7.028;2023-04-24T15:03:29;8.57;;;3.17;;